sensor_id;sensor_type;location;lat;lon;timestamp;P1;durP1;ratioP1;P2;durP2;ratioP2
7080;SDS011;3582;51.506;11.948;2023-10-19T00:01:06;19.58;;;17.58;;
7080;SDS011;3582;51.506;11.948;2023-10-19T00:03:33;18.35;;;16.35;;
7080;SDS011;3582;51.506;11.948;2023-10-19T00:05:59;21.90;;;16.45;;
7080;SDS011;3582;51.506;11.948;2023-10-19T00:08:25;19.17;;;17.20;;
7080;SDS011;3582;51.506;11.948;2023-10-19T00:11:01;20.92;;;17.90;;
7080;SDS011;3582;51.506;11.948;2023-10-19T00:13:30;20.75;;;17.60;;
7080;SDS011;3582;51.506;11.948;2023-10-19T00:15:56;22.65;;;16.90;;
7080;SDS011;3582;51.506;11.948;2023-10-19T00:18:23;18.33;;;16.42;;
7080;SDS011;3582;51.506;11.948;2023-10-19T00:20:51;20.10;;;18.15;;
7080;SDS011;3582;51.506;11.948;2023-10-19T00:23:18;20.00;;;17.15;;
7080;SDS011;3582;51.506;11.948;2023-10-19T00:25:49;19.60;;;16.48;;
7080;SDS011;3582;51.506;11.948;2023-10-19T00:28:16;18.17;;;16.35;;
7080;SDS011;3582;51.506;11.948;2023-10-19T00:30:43;22.35;;;17.38;;
7080;SDS011;3582;51.506;11.948;2023-10-19T00:33:10;18.30;;;16.33;;
7080;SDS011;3582;51.506;11.948;2023-10-19T00:35:47;19.63;;;17.60;;
7080;SDS011;3582;51.506;11.948;2023-10-19T00:38:23;18.83;;;16.48;;
7080;SDS011;3582;51.506;11.948;2023-10-19T00:40:53;19.27;;;17.45;;
7080;SDS011;3582;51.506;11.948;2023-10-19T00:43:27;48.65;;;19.08;;
7080;SDS011;3582;51.506;11.948;2023-10-19T00:45:57;18.85;;;17.05;;
7080;SDS011;3582;51.506;11.948;2023-10-19T00:48:23;21.63;;;16.97;;
7080;SDS011;3582;51.506;11.948;2023-10-19T00:50:51;19.40;;;17.17;;
7080;SDS011;3582;51.506;11.948;2023-10-19T00:53:19;18.63;;;16.63;;
7080;SDS011;3582;51.506;11.948;2023-10-19T00:55:45;20.08;;;17.98;;
7080;SDS011;3582;51.506;11.948;2023-10-19T00:58:11;22.20;;;19.33;;
7080;SDS011;3582;51.506;11.948;2023-10-19T01:00:43;20.23;;;18.13;;
7080;SDS011;3582;51.506;11.948;2023-10-19T01:03:10;20.13;;;18.02;;
7080;SDS011;3582;51.506;11.948;2023-10-19T01:05:39;21.13;;;17.42;;
7080;SDS011;3582;51.506;11.948;2023-10-19T01:08:05;20.23;;;18.13;;
7080;SDS011;3582;51.506;11.948;2023-10-19T01:10:51;21.10;;;18.58;;
7080;SDS011;3582;51.506;11.948;2023-10-19T01:13:18;21.75;;;17.70;;
7080;SDS011;3582;51.506;11.948;2023-10-19T01:15:52;19.92;;;18.00;;
7080;SDS011;3582;51.506;11.948;2023-10-19T01:18:18;23.80;;;21.30;;
7080;SDS011;3582;51.506;11.948;2023-10-19T01:20:44;21.75;;;19.45;;
7080;SDS011;3582;51.506;11.948;2023-10-19T01:23:15;19.25;;;16.73;;
7080;SDS011;3582;51.506;11.948;2023-10-19T01:25:51;23.27;;;19.45;;
7080;SDS011;3582;51.506;11.948;2023-10-19T01:28:22;20.27;;;16.70;;
7080;SDS011;3582;51.506;11.948;2023-10-19T01:31:03;20.67;;;18.05;;
7080;SDS011;3582;51.506;11.948;2023-10-19T01:33:31;23.05;;;19.30;;
7080;SDS011;3582;51.506;11.948;2023-10-19T01:35:59;21.05;;;18.02;;
7080;SDS011;3582;51.506;11.948;2023-10-19T01:38:39;20.45;;;18.35;;
7080;SDS011;3582;51.506;11.948;2023-10-19T01:41:07;18.83;;;16.60;;
7080;SDS011;3582;51.506;11.948;2023-10-19T01:43:40;18.60;;;16.58;;
7080;SDS011;3582;51.506;11.948;2023-10-19T01:46:06;20.45;;;18.33;;
7080;SDS011;3582;51.506;11.948;2023-10-19T01:48:53;18.85;;;16.85;;
7080;SDS011;3582;51.506;11.948;2023-10-19T01:51:20;22.35;;;19.23;;
7080;SDS011;3582;51.506;11.948;2023-10-19T01:53:48;19.88;;;17.92;;
7080;SDS011;3582;51.506;11.948;2023-10-19T01:56:14;20.40;;;16.97;;
7080;SDS011;3582;51.506;11.948;2023-10-19T01:58:45;22.05;;;18.35;;
7080;SDS011;3582;51.506;11.948;2023-10-19T02:01:11;24.05;;;21.48;;
7080;SDS011;3582;51.506;11.948;2023-10-19T02:03:38;19.92;;;17.83;;
7080;SDS011;3582;51.506;11.948;2023-10-19T02:06:07;19.90;;;17.90;;
7080;SDS011;3582;51.506;11.948;2023-10-19T02:08:52;20.70;;;18.60;;
7080;SDS011;3582;51.506;11.948;2023-10-19T02:11:24;19.77;;;16.83;;
7080;SDS011;3582;51.506;11.948;2023-10-19T02:13:53;20.58;;;17.27;;
7080;SDS011;3582;51.506;11.948;2023-10-19T02:16:29;23.98;;;19.33;;
7080;SDS011;3582;51.506;11.948;2023-10-19T02:18:55;21.50;;;19.20;;
7080;SDS011;3582;51.506;11.948;2023-10-19T02:21:21;20.42;;;18.42;;
7080;SDS011;3582;51.506;11.948;2023-10-19T02:23:50;26.70;;;18.25;;
7080;SDS011;3582;51.506;11.948;2023-10-19T02:26:17;24.38;;;21.80;;
7080;SDS011;3582;51.506;11.948;2023-10-19T02:28:45;25.35;;;18.98;;
7080;SDS011;3582;51.506;11.948;2023-10-19T02:31:11;28.50;;;19.55;;
7080;SDS011;3582;51.506;11.948;2023-10-19T02:33:44;21.40;;;18.73;;
7080;SDS011;3582;51.506;11.948;2023-10-19T02:36:29;25.75;;;20.33;;
7080;SDS011;3582;51.506;11.948;2023-10-19T02:38:59;27.08;;;19.20;;
7080;SDS011;3582;51.506;11.948;2023-10-19T02:41:26;23.02;;;19.88;;
7080;SDS011;3582;51.506;11.948;2023-10-19T02:43:53;21.98;;;19.52;;
7080;SDS011;3582;51.506;11.948;2023-10-19T02:46:38;22.10;;;19.73;;
7080;SDS011;3582;51.506;11.948;2023-10-19T02:49:05;22.15;;;18.75;;
7080;SDS011;3582;51.506;11.948;2023-10-19T02:51:39;23.02;;;20.45;;
7080;SDS011;3582;51.506;11.948;2023-10-19T02:54:06;25.75;;;20.17;;
7080;SDS011;3582;51.506;11.948;2023-10-19T02:56:32;23.75;;;18.73;;
7080;SDS011;3582;51.506;11.948;2023-10-19T02:59:00;26.23;;;19.80;;
7080;SDS011;3582;51.506;11.948;2023-10-19T03:01:28;25.52;;;20.77;;
7080;SDS011;3582;51.506;11.948;2023-10-19T03:03:57;25.08;;;20.92;;
7080;SDS011;3582;51.506;11.948;2023-10-19T03:06:25;25.15;;;20.88;;
7080;SDS011;3582;51.506;11.948;2023-10-19T03:08:56;22.80;;;19.63;;
7080;SDS011;3582;51.506;11.948;2023-10-19T03:11:41;24.77;;;20.65;;
7080;SDS011;3582;51.506;11.948;2023-10-19T03:14:07;24.67;;;19.70;;
7080;SDS011;3582;51.506;11.948;2023-10-19T03:16:34;25.73;;;22.60;;
7080;SDS011;3582;51.506;11.948;2023-10-19T03:19:00;25.33;;;20.50;;
7080;SDS011;3582;51.506;11.948;2023-10-19T03:21:26;22.70;;;19.17;;
7080;SDS011;3582;51.506;11.948;2023-10-19T03:23:55;29.10;;;23.02;;
7080;SDS011;3582;51.506;11.948;2023-10-19T03:26:21;29.20;;;21.52;;
7080;SDS011;3582;51.506;11.948;2023-10-19T03:29:01;25.83;;;20.77;;
7080;SDS011;3582;51.506;11.948;2023-10-19T03:31:33;25.75;;;22.05;;
7080;SDS011;3582;51.506;11.948;2023-10-19T03:34:08;30.27;;;24.80;;
7080;SDS011;3582;51.506;11.948;2023-10-19T03:36:35;28.17;;;22.58;;
7080;SDS011;3582;51.506;11.948;2023-10-19T03:39:01;27.77;;;21.08;;
7080;SDS011;3582;51.506;11.948;2023-10-19T03:41:37;26.88;;;22.77;;
7080;SDS011;3582;51.506;11.948;2023-10-19T03:44:07;24.83;;;22.10;;
7080;SDS011;3582;51.506;11.948;2023-10-19T03:46:38;26.98;;;21.55;;
7080;SDS011;3582;51.506;11.948;2023-10-19T03:49:17;29.83;;;22.92;;
7080;SDS011;3582;51.506;11.948;2023-10-19T03:51:44;29.67;;;23.23;;
7080;SDS011;3582;51.506;11.948;2023-10-19T03:54:46;32.95;;;24.92;;
7080;SDS011;3582;51.506;11.948;2023-10-19T03:57:14;24.90;;;22.30;;
7080;SDS011;3582;51.506;11.948;2023-10-19T03:59:44;27.42;;;24.50;;
7080;SDS011;3582;51.506;11.948;2023-10-19T04:02:10;29.10;;;25.17;;
7080;SDS011;3582;51.506;11.948;2023-10-19T04:04:42;32.90;;;26.23;;
7080;SDS011;3582;51.506;11.948;2023-10-19T04:07:16;35.92;;;27.73;;
7080;SDS011;3582;51.506;11.948;2023-10-19T04:09:49;33.22;;;26.00;;
7080;SDS011;3582;51.506;11.948;2023-10-19T04:12:34;29.02;;;25.73;;
7080;SDS011;3582;51.506;11.948;2023-10-19T04:15:00;27.85;;;24.08;;
7080;SDS011;3582;51.506;11.948;2023-10-19T04:17:42;27.88;;;23.92;;
7080;SDS011;3582;51.506;11.948;2023-10-19T04:20:10;35.42;;;25.80;;
7080;SDS011;3582;51.506;11.948;2023-10-19T04:22:45;31.85;;;25.10;;
7080;SDS011;3582;51.506;11.948;2023-10-19T04:25:12;32.08;;;24.95;;
7080;SDS011;3582;51.506;11.948;2023-10-19T04:27:39;36.03;;;26.15;;
7080;SDS011;3582;51.506;11.948;2023-10-19T04:30:07;31.85;;;23.92;;
7080;SDS011;3582;51.506;11.948;2023-10-19T04:32:40;31.70;;;24.95;;
7080;SDS011;3582;51.506;11.948;2023-10-19T04:35:06;32.47;;;25.27;;
7080;SDS011;3582;51.506;11.948;2023-10-19T04:37:34;33.55;;;28.65;;
7080;SDS011;3582;51.506;11.948;2023-10-19T04:40:00;36.15;;;28.08;;
7080;SDS011;3582;51.506;11.948;2023-10-19T04:42:26;33.47;;;26.40;;
7080;SDS011;3582;51.506;11.948;2023-10-19T04:44:54;36.45;;;26.88;;
7080;SDS011;3582;51.506;11.948;2023-10-19T04:47:20;28.02;;;24.20;;
7080;SDS011;3582;51.506;11.948;2023-10-19T04:49:47;33.80;;;27.45;;
7080;SDS011;3582;51.506;11.948;2023-10-19T04:52:13;34.70;;;25.27;;
7080;SDS011;3582;51.506;11.948;2023-10-19T04:54:39;36.63;;;30.70;;
7080;SDS011;3582;51.506;11.948;2023-10-19T04:57:05;39.97;;;26.55;;
7080;SDS011;3582;51.506;11.948;2023-10-19T04:59:31;31.20;;;23.97;;
7080;SDS011;3582;51.506;11.948;2023-10-19T05:01:58;29.52;;;25.25;;
7080;SDS011;3582;51.506;11.948;2023-10-19T05:04:26;32.95;;;25.90;;
7080;SDS011;3582;51.506;11.948;2023-10-19T05:06:52;36.65;;;26.13;;
7080;SDS011;3582;51.506;11.948;2023-10-19T05:09:18;35.85;;;25.88;;
7080;SDS011;3582;51.506;11.948;2023-10-19T05:11:44;35.67;;;26.93;;
7080;SDS011;3582;51.506;11.948;2023-10-19T05:14:11;36.20;;;28.42;;
7080;SDS011;3582;51.506;11.948;2023-10-19T05:16:38;34.33;;;28.23;;
7080;SDS011;3582;51.506;11.948;2023-10-19T05:19:04;29.33;;;22.73;;
7080;SDS011;3582;51.506;11.948;2023-10-19T05:21:30;30.07;;;23.50;;
7080;SDS011;3582;51.506;11.948;2023-10-19T05:23:56;35.83;;;26.57;;
7080;SDS011;3582;51.506;11.948;2023-10-19T05:26:25;33.13;;;27.13;;
7080;SDS011;3582;51.506;11.948;2023-10-19T05:28:51;31.02;;;24.70;;
7080;SDS011;3582;51.506;11.948;2023-10-19T05:31:17;33.90;;;25.27;;
7080;SDS011;3582;51.506;11.948;2023-10-19T05:33:43;32.20;;;26.30;;
7080;SDS011;3582;51.506;11.948;2023-10-19T05:36:09;30.80;;;24.70;;
7080;SDS011;3582;51.506;11.948;2023-10-19T05:38:35;38.90;;;25.97;;
7080;SDS011;3582;51.506;11.948;2023-10-19T05:41:01;32.10;;;25.53;;
7080;SDS011;3582;51.506;11.948;2023-10-19T05:43:28;30.50;;;26.15;;
7080;SDS011;3582;51.506;11.948;2023-10-19T05:45:55;34.63;;;27.48;;
7080;SDS011;3582;51.506;11.948;2023-10-19T05:48:21;31.05;;;26.38;;
7080;SDS011;3582;51.506;11.948;2023-10-19T05:50:51;34.30;;;27.20;;
7080;SDS011;3582;51.506;11.948;2023-10-19T05:53:16;37.13;;;26.77;;
7080;SDS011;3582;51.506;11.948;2023-10-19T05:55:47;32.22;;;26.80;;
7080;SDS011;3582;51.506;11.948;2023-10-19T05:58:14;30.65;;;25.10;;
7080;SDS011;3582;51.506;11.948;2023-10-19T06:00:40;32.03;;;26.55;;
7080;SDS011;3582;51.506;11.948;2023-10-19T06:03:06;38.28;;;27.67;;
7080;SDS011;3582;51.506;11.948;2023-10-19T06:05:32;32.30;;;25.83;;
7080;SDS011;3582;51.506;11.948;2023-10-19T06:07:59;32.90;;;25.57;;
7080;SDS011;3582;51.506;11.948;2023-10-19T06:10:26;30.83;;;25.45;;
7080;SDS011;3582;51.506;11.948;2023-10-19T06:12:53;34.10;;;26.13;;
7080;SDS011;3582;51.506;11.948;2023-10-19T06:15:20;35.42;;;27.75;;
7080;SDS011;3582;51.506;11.948;2023-10-19T06:17:48;34.70;;;25.33;;
7080;SDS011;3582;51.506;11.948;2023-10-19T06:20:14;37.40;;;26.53;;
7080;SDS011;3582;51.506;11.948;2023-10-19T06:22:50;34.20;;;26.30;;
7080;SDS011;3582;51.506;11.948;2023-10-19T06:25:20;36.97;;;26.35;;
7080;SDS011;3582;51.506;11.948;2023-10-19T06:27:49;36.08;;;26.50;;
7080;SDS011;3582;51.506;11.948;2023-10-19T06:30:15;33.50;;;25.38;;
7080;SDS011;3582;51.506;11.948;2023-10-19T06:32:53;31.13;;;24.90;;
7080;SDS011;3582;51.506;11.948;2023-10-19T06:35:19;35.13;;;26.13;;
7080;SDS011;3582;51.506;11.948;2023-10-19T06:37:46;35.53;;;26.00;;
7080;SDS011;3582;51.506;11.948;2023-10-19T06:40:12;31.98;;;23.88;;
7080;SDS011;3582;51.506;11.948;2023-10-19T06:42:44;30.83;;;24.38;;
7080;SDS011;3582;51.506;11.948;2023-10-19T06:45:11;35.53;;;27.65;;
7080;SDS011;3582;51.506;11.948;2023-10-19T06:47:39;41.40;;;24.55;;
7080;SDS011;3582;51.506;11.948;2023-10-19T06:50:06;35.05;;;26.58;;
7080;SDS011;3582;51.506;11.948;2023-10-19T06:52:35;34.15;;;25.67;;
7080;SDS011;3582;51.506;11.948;2023-10-19T06:55:03;37.28;;;24.20;;
7080;SDS011;3582;51.506;11.948;2023-10-19T06:57:29;32.72;;;26.23;;
7080;SDS011;3582;51.506;11.948;2023-10-19T06:59:55;31.90;;;23.20;;
7080;SDS011;3582;51.506;11.948;2023-10-19T07:02:21;35.80;;;26.27;;
7080;SDS011;3582;51.506;11.948;2023-10-19T07:04:47;29.00;;;22.53;;
7080;SDS011;3582;51.506;11.948;2023-10-19T07:07:13;32.23;;;25.10;;
7080;SDS011;3582;51.506;11.948;2023-10-19T07:09:39;31.30;;;23.63;;
7080;SDS011;3582;51.506;11.948;2023-10-19T07:12:06;30.67;;;24.98;;
7080;SDS011;3582;51.506;11.948;2023-10-19T07:14:33;37.15;;;29.30;;
7080;SDS011;3582;51.506;11.948;2023-10-19T07:16:59;29.33;;;23.08;;
7080;SDS011;3582;51.506;11.948;2023-10-19T07:19:25;29.98;;;22.35;;
7080;SDS011;3582;51.506;11.948;2023-10-19T07:21:51;22.92;;;20.38;;
7080;SDS011;3582;51.506;11.948;2023-10-19T07:24:25;29.38;;;23.45;;
7080;SDS011;3582;51.506;11.948;2023-10-19T07:26:51;31.00;;;24.48;;
7080;SDS011;3582;51.506;11.948;2023-10-19T07:29:31;25.75;;;22.05;;
7080;SDS011;3582;51.506;11.948;2023-10-19T07:31:58;29.10;;;20.80;;
7080;SDS011;3582;51.506;11.948;2023-10-19T07:34:24;33.40;;;22.50;;
7080;SDS011;3582;51.506;11.948;2023-10-19T07:36:53;28.00;;;21.25;;
7080;SDS011;3582;51.506;11.948;2023-10-19T07:39:19;27.92;;;22.65;;
7080;SDS011;3582;51.506;11.948;2023-10-19T07:41:45;30.25;;;24.02;;
7080;SDS011;3582;51.506;11.948;2023-10-19T07:44:12;31.38;;;24.73;;
7080;SDS011;3582;51.506;11.948;2023-10-19T07:46:38;27.00;;;21.55;;
7080;SDS011;3582;51.506;11.948;2023-10-19T07:49:04;30.80;;;24.33;;
7080;SDS011;3582;51.506;11.948;2023-10-19T07:51:30;28.65;;;22.27;;
7080;SDS011;3582;51.506;11.948;2023-10-19T07:53:56;34.70;;;25.83;;
7080;SDS011;3582;51.506;11.948;2023-10-19T07:56:22;29.10;;;23.90;;
7080;SDS011;3582;51.506;11.948;2023-10-19T07:58:48;31.27;;;23.13;;
7080;SDS011;3582;51.506;11.948;2023-10-19T08:01:14;29.58;;;22.77;;
7080;SDS011;3582;51.506;11.948;2023-10-19T08:03:41;27.70;;;22.95;;
7080;SDS011;3582;51.506;11.948;2023-10-19T08:06:07;28.57;;;24.47;;
7080;SDS011;3582;51.506;11.948;2023-10-19T08:08:33;29.50;;;20.93;;
7080;SDS011;3582;51.506;11.948;2023-10-19T08:10:59;30.83;;;23.55;;
7080;SDS011;3582;51.506;11.948;2023-10-19T08:13:25;28.75;;;23.10;;
7080;SDS011;3582;51.506;11.948;2023-10-19T08:15:52;28.70;;;21.20;;
7080;SDS011;3582;51.506;11.948;2023-10-19T08:18:18;25.60;;;21.30;;
7080;SDS011;3582;51.506;11.948;2023-10-19T08:20:45;29.23;;;21.90;;
7080;SDS011;3582;51.506;11.948;2023-10-19T08:23:12;24.73;;;19.60;;
7080;SDS011;3582;51.506;11.948;2023-10-19T08:25:41;25.60;;;22.58;;
7080;SDS011;3582;51.506;11.948;2023-10-19T08:28:09;26.00;;;21.55;;
7080;SDS011;3582;51.506;11.948;2023-10-19T08:30:36;28.00;;;21.65;;
7080;SDS011;3582;51.506;11.948;2023-10-19T08:33:02;24.88;;;22.13;;
7080;SDS011;3582;51.506;11.948;2023-10-19T08:35:28;26.40;;;23.20;;
7080;SDS011;3582;51.506;11.948;2023-10-19T08:37:56;26.33;;;22.40;;
7080;SDS011;3582;51.506;11.948;2023-10-19T08:40:22;27.15;;;24.23;;
7080;SDS011;3582;51.506;11.948;2023-10-19T08:42:49;25.52;;;22.55;;
7080;SDS011;3582;51.506;11.948;2023-10-19T08:45:16;25.45;;;22.30;;
7080;SDS011;3582;51.506;11.948;2023-10-19T08:50:15;27.13;;;21.75;;
7080;SDS011;3582;51.506;11.948;2023-10-19T08:52:41;21.70;;;19.40;;
7080;SDS011;3582;51.506;11.948;2023-10-19T08:55:08;25.63;;;21.20;;
7080;SDS011;3582;51.506;11.948;2023-10-19T08:57:37;28.98;;;21.02;;
7080;SDS011;3582;51.506;11.948;2023-10-19T09:00:04;24.10;;;20.75;;
7080;SDS011;3582;51.506;11.948;2023-10-19T09:02:32;26.70;;;20.15;;
7080;SDS011;3582;51.506;11.948;2023-10-19T09:04:58;27.73;;;24.70;;
7080;SDS011;3582;51.506;11.948;2023-10-19T09:07:25;26.50;;;23.60;;
7080;SDS011;3582;51.506;11.948;2023-10-19T09:09:58;27.17;;;23.55;;
7080;SDS011;3582;51.506;11.948;2023-10-19T09:12:30;25.43;;;20.73;;
7080;SDS011;3582;51.506;11.948;2023-10-19T09:14:56;29.20;;;24.20;;
7080;SDS011;3582;51.506;11.948;2023-10-19T09:17:28;28.40;;;20.20;;
7080;SDS011;3582;51.506;11.948;2023-10-19T09:19:55;24.33;;;21.73;;
7080;SDS011;3582;51.506;11.948;2023-10-19T09:22:21;23.57;;;21.10;;
7080;SDS011;3582;51.506;11.948;2023-10-19T09:24:48;25.77;;;20.03;;
7080;SDS011;3582;51.506;11.948;2023-10-19T09:27:23;26.13;;;23.33;;
7080;SDS011;3582;51.506;11.948;2023-10-19T09:29:50;23.87;;;21.33;;
7080;SDS011;3582;51.506;11.948;2023-10-19T09:32:16;24.13;;;21.63;;
7080;SDS011;3582;51.506;11.948;2023-10-19T09:34:43;24.90;;;22.27;;
7080;SDS011;3582;51.506;11.948;2023-10-19T09:37:10;24.00;;;21.50;;
7080;SDS011;3582;51.506;11.948;2023-10-19T09:39:36;24.60;;;22.20;;
7080;SDS011;3582;51.506;11.948;2023-10-19T09:44:32;24.30;;;21.70;;
7080;SDS011;3582;51.506;11.948;2023-10-19T09:47:01;24.50;;;21.87;;
7080;SDS011;3582;51.506;11.948;2023-10-19T09:49:28;27.40;;;22.93;;
7080;SDS011;3582;51.506;11.948;2023-10-19T09:51:55;23.20;;;20.77;;
7080;SDS011;3582;51.506;11.948;2023-10-19T09:54:23;25.43;;;22.30;;
7080;SDS011;3582;51.506;11.948;2023-10-19T09:56:52;24.83;;;22.27;;
7080;SDS011;3582;51.506;11.948;2023-10-19T09:59:28;26.10;;;23.30;;
7080;SDS011;3582;51.506;11.948;2023-10-19T10:02:06;24.07;;;21.50;;
7080;SDS011;3582;51.506;11.948;2023-10-19T10:04:32;25.70;;;23.10;;
7080;SDS011;3582;51.506;11.948;2023-10-19T10:07:00;29.00;;;23.17;;
7080;SDS011;3582;51.506;11.948;2023-10-19T10:09:29;26.10;;;23.27;;
7080;SDS011;3582;51.506;11.948;2023-10-19T10:11:55;26.30;;;23.50;;
7080;SDS011;3582;51.506;11.948;2023-10-19T10:14:30;25.20;;;22.73;;
7080;SDS011;3582;51.506;11.948;2023-10-19T10:17:01;23.13;;;20.93;;
7080;SDS011;3582;51.506;11.948;2023-10-19T10:19:27;24.33;;;21.60;;
7080;SDS011;3582;51.506;11.948;2023-10-19T10:22:03;23.80;;;21.37;;
7080;SDS011;3582;51.506;11.948;2023-10-19T10:24:30;24.17;;;21.63;;
7080;SDS011;3582;51.506;11.948;2023-10-19T10:26:57;27.80;;;23.57;;
7080;SDS011;3582;51.506;11.948;2023-10-19T10:29:23;24.80;;;22.00;;
7080;SDS011;3582;51.506;11.948;2023-10-19T10:31:49;24.73;;;22.27;;
7080;SDS011;3582;51.506;11.948;2023-10-19T10:37:01;29.57;;;21.40;;
7080;SDS011;3582;51.506;11.948;2023-10-19T10:39:27;30.13;;;23.97;;
7080;SDS011;3582;51.506;11.948;2023-10-19T10:41:55;27.70;;;24.20;;
7080;SDS011;3582;51.506;11.948;2023-10-19T10:44:34;27.40;;;22.20;;
7080;SDS011;3582;51.506;11.948;2023-10-19T10:47:00;32.47;;;22.60;;
7080;SDS011;3582;51.506;11.948;2023-10-19T10:49:26;28.70;;;23.23;;
7080;SDS011;3582;51.506;11.948;2023-10-19T10:51:53;31.83;;;22.30;;
7080;SDS011;3582;51.506;11.948;2023-10-19T10:54:21;28.57;;;25.50;;
7080;SDS011;3582;51.506;11.948;2023-10-19T10:56:47;25.73;;;23.17;;
7080;SDS011;3582;51.506;11.948;2023-10-19T10:59:15;26.30;;;23.60;;
7080;SDS011;3582;51.506;11.948;2023-10-19T11:01:42;28.50;;;24.63;;
7080;SDS011;3582;51.506;11.948;2023-10-19T11:04:09;28.53;;;23.87;;
7080;SDS011;3582;51.506;11.948;2023-10-19T11:06:52;36.77;;;24.00;;
7080;SDS011;3582;51.506;11.948;2023-10-19T11:09:20;30.17;;;22.27;;
7080;SDS011;3582;51.506;11.948;2023-10-19T11:11:47;24.27;;;21.70;;
7080;SDS011;3582;51.506;11.948;2023-10-19T11:14:14;23.17;;;20.73;;
7080;SDS011;3582;51.506;11.948;2023-10-19T11:16:40;24.87;;;22.03;;
7080;SDS011;3582;51.506;11.948;2023-10-19T11:19:08;23.30;;;20.90;;
7080;SDS011;3582;51.506;11.948;2023-10-19T11:21:34;25.57;;;21.50;;
7080;SDS011;3582;51.506;11.948;2023-10-19T11:24:00;26.23;;;20.77;;
7080;SDS011;3582;51.506;11.948;2023-10-19T11:26:27;22.67;;;18.90;;
7080;SDS011;3582;51.506;11.948;2023-10-19T11:28:57;25.30;;;20.43;;
7080;SDS011;3582;51.506;11.948;2023-10-19T11:31:23;23.60;;;19.73;;
7080;SDS011;3582;51.506;11.948;2023-10-19T11:33:53;21.40;;;19.20;;
7080;SDS011;3582;51.506;11.948;2023-10-19T11:36:23;22.23;;;18.83;;
7080;SDS011;3582;51.506;11.948;2023-10-19T11:38:51;20.10;;;18.13;;
7080;SDS011;3582;51.506;11.948;2023-10-19T11:41:17;22.97;;;20.80;;
7080;SDS011;3582;51.506;11.948;2023-10-19T11:43:44;24.40;;;20.87;;
7080;SDS011;3582;51.506;11.948;2023-10-19T11:46:10;22.90;;;20.50;;
7080;SDS011;3582;51.506;11.948;2023-10-19T11:48:37;26.57;;;20.27;;
7080;SDS011;3582;51.506;11.948;2023-10-19T11:51:04;23.20;;;19.70;;
7080;SDS011;3582;51.506;11.948;2023-10-19T11:53:31;24.90;;;19.37;;
7080;SDS011;3582;51.506;11.948;2023-10-19T11:56:02;21.40;;;18.23;;
7080;SDS011;3582;51.506;11.948;2023-10-19T11:58:29;23.23;;;19.60;;
7080;SDS011;3582;51.506;11.948;2023-10-19T12:00:57;19.60;;;17.80;;
7080;SDS011;3582;51.506;11.948;2023-10-19T12:03:23;20.07;;;17.93;;
7080;SDS011;3582;51.506;11.948;2023-10-19T12:05:50;20.30;;;17.77;;
7080;SDS011;3582;51.506;11.948;2023-10-19T12:08:18;19.77;;;17.87;;
7080;SDS011;3582;51.506;11.948;2023-10-19T12:10:44;19.37;;;17.40;;
7080;SDS011;3582;51.506;11.948;2023-10-19T12:13:10;19.50;;;17.30;;
7080;SDS011;3582;51.506;11.948;2023-10-19T12:15:36;19.13;;;17.07;;
7080;SDS011;3582;51.506;11.948;2023-10-19T12:18:02;18.43;;;16.70;;
7080;SDS011;3582;51.506;11.948;2023-10-19T12:20:29;23.27;;;18.73;;
7080;SDS011;3582;51.506;11.948;2023-10-19T12:23:00;21.57;;;15.80;;
7080;SDS011;3582;51.506;11.948;2023-10-19T12:25:26;18.10;;;16.07;;
7080;SDS011;3582;51.506;11.948;2023-10-19T12:27:56;18.03;;;16.17;;
7080;SDS011;3582;51.506;11.948;2023-10-19T12:30:22;17.17;;;15.37;;
7080;SDS011;3582;51.506;11.948;2023-10-19T12:32:51;17.30;;;15.60;;
7080;SDS011;3582;51.506;11.948;2023-10-19T12:35:17;18.40;;;16.50;;
7080;SDS011;3582;51.506;11.948;2023-10-19T12:37:45;18.40;;;16.60;;
7080;SDS011;3582;51.506;11.948;2023-10-19T12:40:13;21.20;;;17.60;;
7080;SDS011;3582;51.506;11.948;2023-10-19T12:42:51;23.10;;;16.70;;
7080;SDS011;3582;51.506;11.948;2023-10-19T12:45:20;21.50;;;19.27;;
7080;SDS011;3582;51.506;11.948;2023-10-19T12:47:45;19.60;;;17.80;;
7080;SDS011;3582;51.506;11.948;2023-10-19T12:50:11;23.47;;;18.47;;
7080;SDS011;3582;51.506;11.948;2023-10-19T12:52:38;21.97;;;19.53;;
7080;SDS011;3582;51.506;11.948;2023-10-19T12:55:05;24.93;;;19.50;;
7080;SDS011;3582;51.506;11.948;2023-10-19T12:57:31;20.17;;;18.20;;
7080;SDS011;3582;51.506;11.948;2023-10-19T12:59:57;21.23;;;19.13;;
7080;SDS011;3582;51.506;11.948;2023-10-19T13:02:31;21.60;;;19.47;;
7080;SDS011;3582;51.506;11.948;2023-10-19T13:04:57;20.17;;;18.07;;
7080;SDS011;3582;51.506;11.948;2023-10-19T13:07:24;29.20;;;19.40;;
7080;SDS011;3582;51.506;11.948;2023-10-19T13:09:51;22.60;;;19.03;;
7080;SDS011;3582;51.506;11.948;2023-10-19T13:12:17;20.37;;;18.30;;
7080;SDS011;3582;51.506;11.948;2023-10-19T13:14:48;24.80;;;21.70;;
7080;SDS011;3582;51.506;11.948;2023-10-19T13:17:14;22.70;;;20.27;;
7080;SDS011;3582;51.506;11.948;2023-10-19T13:19:40;23.20;;;19.07;;
7080;SDS011;3582;51.506;11.948;2023-10-19T13:22:06;24.23;;;21.93;;
7080;SDS011;3582;51.506;11.948;2023-10-19T13:24:32;21.43;;;18.53;;
7080;SDS011;3582;51.506;11.948;2023-10-19T13:27:05;23.60;;;20.77;;
7080;SDS011;3582;51.506;11.948;2023-10-19T13:29:31;29.53;;;20.63;;
7080;SDS011;3582;51.506;11.948;2023-10-19T13:32:02;29.13;;;21.00;;
7080;SDS011;3582;51.506;11.948;2023-10-19T13:34:28;21.90;;;19.27;;
7080;SDS011;3582;51.506;11.948;2023-10-19T13:36:54;21.93;;;19.53;;
7080;SDS011;3582;51.506;11.948;2023-10-19T13:39:21;23.00;;;20.63;;
7080;SDS011;3582;51.506;11.948;2023-10-19T13:41:50;29.80;;;24.43;;
7080;SDS011;3582;51.506;11.948;2023-10-19T13:44:17;27.23;;;19.67;;
7080;SDS011;3582;51.506;11.948;2023-10-19T13:46:45;21.13;;;18.73;;
7080;SDS011;3582;51.506;11.948;2023-10-19T13:49:11;27.20;;;22.37;;
7080;SDS011;3582;51.506;11.948;2023-10-19T13:51:38;22.60;;;20.33;;
7080;SDS011;3582;51.506;11.948;2023-10-19T13:54:04;22.67;;;20.43;;
7080;SDS011;3582;51.506;11.948;2023-10-19T13:56:31;31.80;;;25.47;;
7080;SDS011;3582;51.506;11.948;2023-10-19T13:58:57;24.10;;;21.53;;
7080;SDS011;3582;51.506;11.948;2023-10-19T14:01:24;27.27;;;20.47;;
7080;SDS011;3582;51.506;11.948;2023-10-19T14:03:53;22.67;;;20.27;;
7080;SDS011;3582;51.506;11.948;2023-10-19T14:06:22;22.40;;;20.23;;
7080;SDS011;3582;51.506;11.948;2023-10-19T14:08:50;23.50;;;21.03;;
7080;SDS011;3582;51.506;11.948;2023-10-19T14:11:16;25.83;;;20.57;;
7080;SDS011;3582;51.506;11.948;2023-10-19T14:13:43;29.33;;;22.83;;
7080;SDS011;3582;51.506;11.948;2023-10-19T14:16:10;25.50;;;22.40;;
7080;SDS011;3582;51.506;11.948;2023-10-19T14:18:36;27.20;;;24.30;;
7080;SDS011;3582;51.506;11.948;2023-10-19T14:21:15;28.00;;;22.40;;
7080;SDS011;3582;51.506;11.948;2023-10-19T14:23:41;26.67;;;23.70;;
7080;SDS011;3582;51.506;11.948;2023-10-19T14:26:08;25.50;;;22.83;;
7080;SDS011;3582;51.506;11.948;2023-10-19T14:28:34;27.73;;;24.77;;
7080;SDS011;3582;51.506;11.948;2023-10-19T14:31:01;27.10;;;22.37;;
7080;SDS011;3582;51.506;11.948;2023-10-19T14:33:29;25.80;;;23.40;;
7080;SDS011;3582;51.506;11.948;2023-10-19T14:35:54;24.03;;;21.73;;
7080;SDS011;3582;51.506;11.948;2023-10-19T14:38:20;23.17;;;20.67;;
7080;SDS011;3582;51.506;11.948;2023-10-19T14:40:46;26.80;;;24.10;;
7080;SDS011;3582;51.506;11.948;2023-10-19T14:43:13;26.97;;;24.17;;
7080;SDS011;3582;51.506;11.948;2023-10-19T14:45:40;24.40;;;22.00;;
7080;SDS011;3582;51.506;11.948;2023-10-19T14:48:08;27.20;;;24.13;;